createdAt,value
2018-01-25T00:01:45.890Z,101671.80
2018-01-25T00:04:14.318Z,101660.70
2018-01-25T00:06:42.780Z,101660.06
2018-01-25T00:09:11.244Z,101660.72
2018-01-25T00:11:39.749Z,101656.89
2018-01-25T00:14:08.212Z,101655.61
2018-01-25T00:16:36.685Z,101670.59
2018-01-25T00:19:05.161Z,101677.23
2018-01-25T00:21:33.672Z,101677.50
2018-01-25T00:24:02.197Z,101680.38
2018-01-25T00:26:30.853Z,101676.32
2018-01-25T00:28:59.256Z,101666.35
2018-01-25T00:31:27.744Z,101680.47
2018-01-25T00:33:56.163Z,101682.00
2018-01-25T00:36:24.637Z,101685.30
2018-01-25T00:38:53.107Z,101685.19
2018-01-25T00:41:21.516Z,101674.73
2018-01-25T00:43:49.965Z,101684.37
2018-01-25T00:46:18.415Z,101673.48
2018-01-25T00:48:46.888Z,101687.87
2018-01-25T00:51:15.315Z,101687.45
2018-01-25T00:53:43.792Z,101691.83
2018-01-25T00:56:12.261Z,101699.20
2018-01-25T00:58:40.900Z,101707.96
2018-01-25T01:01:09.362Z,101699.13
2018-01-25T01:03:37.880Z,101703.39
2018-01-25T01:06:06.353Z,101699.13
2018-01-25T01:08:34.868Z,101696.11
2018-01-25T01:11:03.299Z,101688.38
2018-01-25T01:13:31.778Z,101665.03
2018-01-25T01:16:00.330Z,101676.65
2018-01-25T01:18:28.752Z,101670.27
2018-01-25T01:20:57.285Z,101666.06
2018-01-25T01:23:25.708Z,101660.61
2018-01-25T01:25:54.132Z,101659.91
2018-01-25T01:28:22.580Z,101658.58
2018-01-25T01:30:51.020Z,101650.50
2018-01-25T01:33:19.488Z,101648.59
2018-01-25T01:35:47.915Z,101639.08
2018-01-25T01:38:16.337Z,101649.92
2018-01-25T01:40:44.891Z,101642.44
2018-01-25T01:43:13.314Z,101643.63
2018-01-25T01:45:41.781Z,101634.83
2018-01-25T01:48:10.305Z,101638.98
2018-01-25T01:50:38.819Z,101640.98
2018-01-25T01:53:07.284Z,101637.89
2018-01-25T01:55:35.716Z,101630.45
2018-01-25T01:58:04.137Z,101625.69
2018-01-25T02:00:32.589Z,101620.00
2018-01-25T02:03:01.088Z,101628.92
2018-01-25T02:05:29.604Z,101624.04
2018-01-25T02:07:58.024Z,101625.63
2018-01-25T02:10:26.529Z,101627.45
2018-01-25T02:12:55.028Z,101630.78
2018-01-25T02:15:23.473Z,101635.41
2018-01-25T02:17:51.897Z,101628.94
2018-01-25T02:20:20.357Z,101622.39
2018-01-25T02:22:48.792Z,101627.12
2018-01-25T02:25:17.226Z,101623.63
2018-01-25T02:27:45.729Z,101596.25
2018-01-25T02:30:14.196Z,101622.03
2018-01-25T02:32:42.683Z,101616.72
2018-01-25T02:35:11.137Z,101600.78
2018-01-25T02:37:39.609Z,101608.45
2018-01-25T02:40:08.109Z,101608.45
2018-01-25T02:42:36.537Z,101603.88
2018-01-25T02:45:05.008Z,101603.77
2018-01-25T02:47:33.529Z,101602.77
2018-01-25T02:50:01.951Z,101597.86
2018-01-25T02:52:30.393Z,101594.55
2018-01-25T02:54:58.848Z,101597.79
2018-01-25T02:57:27.321Z,101595.33
2018-01-25T02:59:55.769Z,101592.56
2018-01-25T03:02:24.259Z,101582.20
2018-01-25T03:04:52.766Z,101578.34
2018-01-25T03:07:21.178Z,101574.42
2018-01-25T03:09:49.636Z,101576.66
2018-01-25T03:12:18.210Z,101575.42
2018-01-25T03:14:46.689Z,101564.05
2018-01-25T03:17:15.139Z,101565.64
2018-01-25T03:19:43.557Z,101565.70
2018-01-25T03:22:11.990Z,101563.62
2018-01-25T03:24:40.520Z,101556.96
2018-01-25T03:27:08.954Z,101555.27
2018-01-25T03:29:37.404Z,101558.02
2018-01-25T03:32:05.881Z,101560.62
2018-01-25T03:34:34.351Z,101555.37
2018-01-25T03:37:02.829Z,101556.31
2018-01-25T03:39:31.309Z,101554.63
2018-01-25T03:41:59.818Z,101556.70
2018-01-25T03:44:28.285Z,101558.69
2018-01-25T03:46:56.821Z,101559.31
2018-01-25T03:49:25.241Z,101558.74
2018-01-25T03:51:53.658Z,101534.84
2018-01-25T03:54:22.108Z,101546.91
2018-01-25T03:56:50.625Z,101552.36
2018-01-25T03:59:19.104Z,101549.11
2018-01-25T04:01:47.521Z,101554.11
2018-01-25T04:04:15.968Z,101555.22
2018-01-25T04:06:44.358Z,101560.95
2018-01-25T04:09:12.857Z,101552.63
2018-01-25T04:11:41.274Z,101542.95
2018-01-25T04:14:09.706Z,101552.73
2018-01-25T04:16:38.115Z,101553.48
2018-01-25T04:19:06.577Z,101544.33
2018-01-25T04:21:35.015Z,101555.10
2018-01-25T04:24:03.468Z,101555.06
2018-01-25T04:26:31.919Z,101548.30
2018-01-25T04:29:00.430Z,101550.93
2018-01-25T04:31:28.896Z,101542.17
2018-01-25T04:33:57.349Z,101544.21
2018-01-25T04:36:25.800Z,101540.09
2018-01-25T04:38:54.209Z,101546.48
2018-01-25T04:41:22.655Z,101548.23
2018-01-25T04:43:51.163Z,101551.37
2018-01-25T04:46:19.603Z,101556.08
2018-01-25T04:48:48.085Z,101550.54
2018-01-25T04:51:16.496Z,101549.54
2018-01-25T04:53:44.969Z,101545.54
2018-01-25T04:56:13.469Z,101540.08
2018-01-25T04:58:41.884Z,101536.36
2018-01-25T05:01:10.441Z,101531.54
2018-01-25T05:03:38.921Z,101520.83
2018-01-25T05:06:07.333Z,101527.63
2018-01-25T05:08:35.785Z,101529.02
2018-01-25T05:11:04.290Z,101527.22
2018-01-25T05:13:32.716Z,101523.78
2018-01-25T05:16:01.150Z,101520.66
2018-01-25T05:18:29.632Z,101528.33
2018-01-25T05:20:58.125Z,101520.73
2018-01-25T05:23:26.662Z,101526.59
2018-01-25T05:25:55.108Z,101526.69
2018-01-25T05:28:23.661Z,101531.50
2018-01-25T05:30:52.085Z,101527.91
2018-01-25T05:33:20.557Z,101533.64
2018-01-25T05:35:49.040Z,101538.05
2018-01-25T05:38:17.481Z,101542.95
2018-01-25T05:40:45.928Z,101548.80
2018-01-25T05:43:14.333Z,101541.27
2018-01-25T05:45:42.784Z,101544.44
2018-01-25T05:48:11.233Z,101550.49
2018-01-25T05:50:39.676Z,101557.50
2018-01-25T05:53:08.081Z,101543.92
2018-01-25T05:55:36.548Z,101567.31
2018-01-25T05:58:05.021Z,101575.25
2018-01-25T06:00:33.566Z,101456.73
2018-01-25T06:03:02.115Z,101571.30
2018-01-25T06:05:30.570Z,101558.85
2018-01-25T06:07:59.061Z,101553.48
2018-01-25T06:10:27.516Z,101577.11
2018-01-25T06:12:55.992Z,101573.66
2018-01-25T06:15:24.416Z,101580.64
2018-01-25T06:17:52.878Z,101580.30
2018-01-25T06:20:21.551Z,101582.31
2018-01-25T06:22:50.008Z,101567.69
2018-01-25T06:25:18.475Z,101587.14
2018-01-25T06:27:46.932Z,101551.67
2018-01-25T06:30:15.361Z,101573.09
2018-01-25T06:32:43.906Z,101569.42
2018-01-25T06:35:12.363Z,101587.22
2018-01-25T06:37:40.791Z,101557.23
2018-01-25T06:40:09.237Z,101577.21
2018-01-25T06:42:37.744Z,101585.02
2018-01-25T06:45:06.331Z,101572.32
2018-01-25T06:47:34.822Z,101585.59
2018-01-25T06:50:03.400Z,101587.16
2018-01-25T06:52:31.928Z,101571.95
2018-01-25T06:55:00.401Z,101583.19
2018-01-25T06:57:28.918Z,101580.58
2018-01-25T06:59:57.345Z,101585.35
2018-01-25T07:02:25.797Z,101582.50
2018-01-25T07:04:54.283Z,101578.93
2018-01-25T07:07:22.756Z,101575.98
2018-01-25T07:09:51.193Z,101564.39
2018-01-25T07:12:19.686Z,101577.97
2018-01-25T07:14:48.090Z,101573.20
2018-01-25T07:17:16.560Z,101574.38
2018-01-25T07:19:44.977Z,101565.73
2018-01-25T07:22:13.405Z,101572.20
2018-01-25T07:24:41.868Z,101554.42
2018-01-25T07:27:11.224Z,101566.79
2018-01-25T07:29:39.676Z,101570.02
2018-01-25T07:32:08.157Z,101558.45
2018-01-25T07:34:36.612Z,101551.89
2018-01-25T07:37:05.097Z,101550.39
2018-01-25T07:39:33.569Z,101560.38
2018-01-25T07:42:02.105Z,101543.07
2018-01-25T07:44:30.578Z,101546.98
2018-01-25T07:46:58.993Z,101550.95
2018-01-25T07:49:27.437Z,101530.53
2018-01-25T07:51:55.880Z,101538.76
2018-01-25T07:54:24.349Z,101528.48
2018-01-25T07:56:52.871Z,101546.19
2018-01-25T07:59:21.282Z,101539.88
2018-01-25T08:01:49.732Z,101517.48
2018-01-25T08:04:18.177Z,101539.91
2018-01-25T08:06:46.578Z,101535.14
2018-01-25T08:09:15.040Z,101533.03
2018-01-25T08:11:43.445Z,101525.55
2018-01-25T08:14:11.921Z,101498.82
2018-01-25T08:16:45.889Z,101523.71
2018-01-25T08:19:14.293Z,101527.11
2018-01-25T08:21:42.785Z,101506.11
2018-01-25T08:24:11.246Z,101532.70
2018-01-25T08:26:39.689Z,101531.05
2018-01-25T08:29:08.175Z,101532.66
2018-01-25T08:31:36.648Z,101508.05
2018-01-25T08:34:05.125Z,101530.64
2018-01-25T08:36:33.645Z,101525.73
2018-01-25T08:39:02.068Z,101533.10
2018-01-25T08:41:33.156Z,101546.08
2018-01-25T08:43:59.061Z,101522.22
2018-01-25T08:46:28.417Z,101542.72
2018-01-25T08:48:56.921Z,101536.96
2018-01-25T08:51:25.353Z,101537.74
2018-01-25T08:53:53.885Z,101518.37
2018-01-25T08:56:22.353Z,101529.30
2018-01-25T08:58:50.827Z,101530.41
2018-01-25T09:01:19.291Z,101533.89
2018-01-25T09:03:47.741Z,101531.73
2018-01-25T09:06:16.277Z,101508.63
2018-01-25T09:08:44.773Z,101449.76
2018-01-25T09:11:13.154Z,101524.98
2018-01-25T09:13:41.610Z,101487.36
2018-01-25T09:16:10.039Z,101493.89
2018-01-25T09:18:38.488Z,101506.34
2018-01-25T09:21:06.942Z,101482.83
2018-01-25T09:23:35.408Z,101496.45
2018-01-25T09:26:03.881Z,101488.17
2018-01-25T09:28:32.414Z,101471.28
2018-01-25T09:31:00.829Z,101475.84
2018-01-25T09:33:29.238Z,101473.01
2018-01-25T09:35:57.677Z,101463.02
2018-01-25T09:38:26.153Z,101455.12
2018-01-25T09:40:54.604Z,101431.31
2018-01-25T09:43:23.070Z,101449.78
2018-01-25T09:45:51.589Z,101424.06
2018-01-25T09:48:20.105Z,101431.88
2018-01-25T09:50:48.577Z,101426.17
2018-01-25T09:53:17.086Z,101414.08
2018-01-25T09:55:45.509Z,101415.63
2018-01-25T09:58:13.970Z,101407.59
2018-01-25T10:00:42.485Z,101403.86
2018-01-25T10:03:10.943Z,101404.16
2018-01-25T10:05:39.401Z,101394.05
2018-01-25T10:08:07.901Z,101382.39
2018-01-25T10:10:36.300Z,101393.38
2018-01-25T10:13:04.764Z,101373.25
2018-01-25T10:15:33.255Z,101373.00
2018-01-25T10:18:01.737Z,101365.75
2018-01-25T10:20:30.170Z,101363.84
2018-01-25T10:22:58.572Z,101352.66
2018-01-25T10:25:27.037Z,101357.65
2018-01-25T10:27:55.481Z,101346.69
2018-01-25T10:30:23.901Z,101335.75
2018-01-25T10:32:52.340Z,101339.88
2018-01-25T10:35:20.805Z,101329.34
2018-01-25T10:37:49.344Z,101341.02
2018-01-25T10:40:17.757Z,101329.34
2018-01-25T10:42:46.186Z,101321.91
2018-01-25T10:45:14.699Z,101321.22
2018-01-25T10:47:43.121Z,101315.53
2018-01-25T10:50:11.564Z,101284.79
2018-01-25T10:52:40.087Z,101308.97
2018-01-25T10:55:08.534Z,101297.08
2018-01-25T10:57:36.985Z,101288.54
2018-01-25T11:00:05.390Z,101266.31
2018-01-25T11:02:33.896Z,101288.40
2018-01-25T11:05:02.392Z,101295.94
2018-01-25T11:07:30.850Z,101281.37
2018-01-25T11:09:59.298Z,101281.05
2018-01-25T11:12:27.758Z,101272.03
2018-01-25T11:14:56.266Z,101259.31
2018-01-25T11:17:24.902Z,101256.89
2018-01-25T11:19:53.304Z,101261.78
2018-01-25T11:22:21.744Z,101261.24
2018-01-25T11:24:50.160Z,101255.88
2018-01-25T11:27:18.614Z,101250.08
2018-01-25T11:29:47.086Z,101252.06
2018-01-25T11:32:15.533Z,101253.00
2018-01-25T11:34:43.941Z,101250.71
2018-01-25T11:37:12.388Z,101243.31
2018-01-25T11:39:40.791Z,101238.14
2018-01-25T11:42:09.251Z,101239.12
2018-01-25T11:44:37.725Z,101238.02
2018-01-25T11:47:06.120Z,101230.84
2018-01-25T11:49:34.548Z,101191.20
2018-01-25T11:52:03.019Z,101219.78
2018-01-25T11:54:31.470Z,101211.05
2018-01-25T11:56:59.968Z,101205.36
2018-01-25T11:59:28.478Z,101195.69
2018-01-25T12:01:56.987Z,101186.34
2018-01-25T12:04:25.480Z,101188.16
2018-01-25T12:06:53.990Z,101183.22
2018-01-25T12:09:22.506Z,101173.34
2018-01-25T12:11:50.926Z,101184.64
2018-01-25T12:14:19.441Z,101181.56
2018-01-25T12:16:47.913Z,101181.38
2018-01-25T12:19:16.313Z,101173.83
2018-01-25T12:21:44.746Z,101162.32
2018-01-25T12:24:13.199Z,101169.05
2018-01-25T12:26:41.641Z,101170.41
2018-01-25T12:29:10.076Z,101151.36
2018-01-25T12:31:38.538Z,101159.61
2018-01-25T12:34:06.985Z,101153.92
2018-01-25T12:36:35.448Z,101159.63
2018-01-25T12:39:03.992Z,101161.60
2018-01-25T12:41:32.482Z,101164.00
2018-01-25T12:44:01.027Z,101154.96
2018-01-25T12:46:29.480Z,101155.30
2018-01-25T12:48:57.917Z,101149.78
2018-01-25T12:51:26.397Z,101147.62
2018-01-25T12:53:54.895Z,101142.88
2018-01-25T12:56:23.365Z,101144.07
2018-01-25T12:58:51.834Z,101142.73
2018-01-25T13:01:20.287Z,101113.83
2018-01-25T13:03:48.792Z,101147.05
2018-01-25T13:06:17.237Z,101133.16
2018-01-25T13:08:45.751Z,101128.55
2018-01-25T13:11:14.433Z,101136.88
2018-01-25T13:13:42.925Z,101108.45
2018-01-25T13:16:11.410Z,101137.63
2018-01-25T13:18:39.873Z,101139.73
2018-01-25T13:21:08.316Z,101130.66
2018-01-25T13:23:36.789Z,101135.98
2018-01-25T13:26:05.236Z,101128.64
2018-01-25T13:28:33.710Z,101126.83
2018-01-25T13:31:02.176Z,101114.08
2018-01-25T13:33:36.193Z,101134.03
2018-01-25T13:36:04.767Z,101111.31
2018-01-25T13:38:33.307Z,101132.70
2018-01-25T13:41:01.792Z,101127.46
2018-01-25T13:43:30.277Z,101130.44
2018-01-25T13:45:58.769Z,101125.97
2018-01-25T13:48:27.284Z,101127.50
2018-01-25T13:50:55.746Z,101065.71
2018-01-25T13:53:24.157Z,101118.84
2018-01-25T13:55:52.623Z,101085.34
2018-01-25T13:58:21.083Z,101115.22
2018-01-25T14:00:49.573Z,101119.11
2018-01-25T14:03:18.049Z,101111.56
2018-01-25T14:05:46.523Z,101100.28
2018-01-25T14:08:14.989Z,101111.87
2018-01-25T14:10:43.477Z,101111.20
2018-01-25T14:13:11.933Z,101104.72
2018-01-25T14:15:40.373Z,101102.44
2018-01-25T14:18:08.829Z,101088.09
2018-01-25T14:20:37.309Z,101107.21
2018-01-25T14:23:05.726Z,101085.05
2018-01-25T14:25:34.285Z,101103.21
2018-01-25T14:28:03.369Z,101101.09
2018-01-25T14:30:31.851Z,101081.19
2018-01-25T14:33:00.357Z,101092.20
2018-01-25T14:35:28.758Z,101093.03
2018-01-25T14:37:57.297Z,101086.66
2018-01-25T14:40:25.762Z,101104.62
2018-01-25T14:42:54.358Z,101094.95
2018-01-25T14:45:22.772Z,101080.83
2018-01-25T14:47:51.204Z,101077.20
2018-01-25T14:50:19.649Z,101098.95
2018-01-25T14:52:48.060Z,101093.66
2018-01-25T14:55:16.517Z,101093.63
2018-01-25T14:57:45.021Z,101090.27
2018-01-25T15:00:13.446Z,101096.85
2018-01-25T15:02:41.932Z,101092.75
2018-01-25T15:05:10.318Z,101092.47
2018-01-25T15:07:38.760Z,101096.22
2018-01-25T15:10:07.228Z,101093.22
2018-01-25T15:12:35.730Z,101094.03
2018-01-25T15:15:04.177Z,101089.39
2018-01-25T15:17:32.723Z,101095.55
2018-01-25T15:20:01.136Z,101080.39
2018-01-25T15:22:29.631Z,101080.08
2018-01-25T15:25:03.925Z,101004.62
2018-01-25T15:27:34.152Z,101090.44
2018-01-25T15:30:02.617Z,101096.41
2018-01-25T15:32:31.041Z,101101.47
2018-01-25T15:34:59.541Z,101088.93
2018-01-25T15:37:27.949Z,101081.81
2018-01-25T15:39:56.400Z,101071.23
2018-01-25T15:42:24.902Z,101088.06
2018-01-25T15:44:53.348Z,101096.43
2018-01-25T15:47:21.813Z,101100.02
2018-01-25T15:49:50.314Z,101090.90
2018-01-25T15:52:18.809Z,101100.28
2018-01-25T15:54:47.224Z,101087.60
2018-01-25T15:57:15.680Z,101094.30
2018-01-25T15:59:44.095Z,101096.61
2018-01-25T16:02:12.497Z,101094.27
2018-01-25T16:04:40.997Z,101097.92
2018-01-25T16:07:09.404Z,101094.78
2018-01-25T16:09:37.853Z,101101.48
2018-01-25T16:12:06.269Z,101091.83
2018-01-25T16:14:34.716Z,101095.39
2018-01-25T16:17:03.102Z,101100.14
2018-01-25T16:19:31.588Z,101102.86
2018-01-25T16:21:59.994Z,101103.55
2018-01-25T16:24:28.393Z,101103.94
2018-01-25T16:26:56.840Z,101090.31
2018-01-25T16:29:25.337Z,101107.52
2018-01-25T16:31:53.793Z,101097.91
2018-01-25T16:34:22.245Z,101102.83
2018-01-25T16:36:50.649Z,101106.09
2018-01-25T16:39:19.117Z,101104.91
2018-01-25T16:41:47.633Z,101108.03
2018-01-25T16:44:16.110Z,101108.11
2018-01-25T16:46:44.598Z,101103.34
2018-01-25T16:49:13.095Z,101105.95
2018-01-25T16:51:41.557Z,101100.63
2018-01-25T16:54:09.952Z,101108.86
2018-01-25T16:56:38.393Z,101104.73
2018-01-25T16:59:06.874Z,101091.26
2018-01-25T17:01:35.277Z,101118.74
2018-01-25T17:04:03.781Z,101117.19
2018-01-25T17:06:32.218Z,101114.40
2018-01-25T17:09:00.640Z,101118.34
2018-01-25T17:11:29.136Z,101122.98
2018-01-25T17:13:57.545Z,101122.41
2018-01-25T17:16:25.998Z,101127.39
2018-01-25T17:18:54.444Z,101122.40
2018-01-25T17:21:22.965Z,101127.20
2018-01-25T17:23:51.480Z,101132.89
2018-01-25T17:26:19.927Z,101135.70
2018-01-25T17:28:48.402Z,101137.66
2018-01-25T17:31:16.845Z,101139.25
2018-01-25T17:33:45.297Z,101143.77
2018-01-25T17:36:13.705Z,101138.48
2018-01-25T17:38:42.109Z,101137.77
2018-01-25T17:41:10.554Z,101137.06
2018-01-25T17:43:39.025Z,101139.00
2018-01-25T17:46:07.522Z,101146.16
2018-01-25T17:48:35.988Z,101137.53
2018-01-25T17:51:04.408Z,101129.20
2018-01-25T17:53:32.877Z,101139.61
2018-01-25T17:56:01.369Z,101143.12
2018-01-25T17:58:29.825Z,101136.24
2018-01-25T18:00:58.323Z,101132.23
2018-01-25T18:03:26.833Z,101137.27
2018-01-25T18:05:55.259Z,101141.98
2018-01-25T18:08:23.695Z,101137.97
2018-01-25T18:10:52.177Z,101148.68
2018-01-25T18:13:20.625Z,101142.28
2018-01-25T18:15:49.041Z,101147.67
2018-01-25T18:18:17.566Z,101144.18
2018-01-25T18:20:46.049Z,101136.51
2018-01-25T18:23:14.465Z,101134.38
2018-01-25T18:25:42.969Z,101151.38
2018-01-25T18:28:11.453Z,101140.42
2018-01-25T18:30:39.993Z,101138.33
2018-01-25T18:33:08.436Z,101140.69
2018-01-25T18:35:36.857Z,101152.72
2018-01-25T18:38:05.331Z,101149.77
2018-01-25T18:40:33.813Z,101130.91
2018-01-25T18:43:02.248Z,101140.02
2018-01-25T18:45:30.721Z,101141.95
2018-01-25T18:47:59.176Z,101147.09
2018-01-25T18:50:27.589Z,101142.97
2018-01-25T18:52:56.057Z,101145.25
2018-01-25T18:55:24.469Z,101142.83
2018-01-25T18:57:52.893Z,101144.53
2018-01-25T19:00:21.904Z,101146.28
2018-01-25T19:02:50.313Z,101149.45
2018-01-25T19:05:18.765Z,101152.92
2018-01-25T19:07:47.182Z,101159.93
2018-01-25T19:10:15.641Z,101133.91
2018-01-25T19:12:44.081Z,101157.17
2018-01-25T19:15:12.557Z,101159.09
2018-01-25T19:17:40.989Z,101157.39
2018-01-25T19:20:09.456Z,101165.58
2018-01-25T19:22:37.974Z,101163.61
2018-01-25T19:25:06.495Z,101159.54
2018-01-25T19:27:34.960Z,101172.73
2018-01-25T19:30:03.480Z,101168.14
2018-01-25T19:32:31.957Z,101168.69
2018-01-25T19:35:00.449Z,101168.75
2018-01-25T19:37:28.933Z,101174.83
2018-01-25T19:39:57.488Z,101177.50
2018-01-25T19:42:25.951Z,101178.69
2018-01-25T19:44:54.427Z,101176.02
2018-01-25T19:47:22.887Z,101173.97
2018-01-25T19:49:51.385Z,101171.78
2018-01-25T19:52:19.905Z,101178.03
2018-01-25T19:54:48.328Z,101176.01
2018-01-25T19:57:16.745Z,101175.84
2018-01-25T19:59:45.228Z,101179.34
2018-01-25T20:02:13.652Z,101175.84
2018-01-25T20:04:42.106Z,101160.73
2018-01-25T20:07:10.528Z,101187.03
2018-01-25T20:09:38.988Z,101160.81
2018-01-25T20:12:07.485Z,101168.91
2018-01-25T20:14:35.957Z,101180.88
2018-01-25T20:17:04.384Z,101182.73
2018-01-25T20:19:32.845Z,101181.52
2018-01-25T20:22:01.354Z,101180.27
2018-01-25T20:24:29.817Z,101182.09
2018-01-25T20:26:58.333Z,101182.09
2018-01-25T20:29:26.754Z,101184.53
2018-01-25T20:31:55.217Z,101184.59
2018-01-25T20:34:23.718Z,101186.10
2018-01-25T20:36:52.233Z,101187.88
2018-01-25T20:39:20.657Z,101182.81
2018-01-25T20:41:49.194Z,101184.34
2018-01-25T20:44:17.609Z,101189.91
2018-01-25T20:46:46.109Z,101174.34
2018-01-25T20:49:14.650Z,101181.88
2018-01-25T20:51:43.129Z,101188.60
2018-01-25T20:54:11.584Z,101196.44
2018-01-25T20:56:40.052Z,101199.61
2018-01-25T20:59:08.468Z,101199.46
2018-01-25T21:01:36.885Z,101198.59
2018-01-25T21:04:05.357Z,101206.01
2018-01-25T21:06:33.877Z,101210.53
2018-01-25T21:09:02.359Z,101209.62
2018-01-25T21:11:30.825Z,101210.27
2018-01-25T21:13:59.252Z,101213.00
2018-01-25T21:16:27.729Z,101213.11
2018-01-25T21:18:56.184Z,101209.62
2018-01-25T21:21:24.669Z,101215.05
2018-01-25T21:23:53.116Z,101220.56
2018-01-25T21:26:21.528Z,101218.50
2018-01-25T21:28:49.982Z,101226.43
2018-01-25T21:31:18.411Z,101220.39
2018-01-25T21:33:46.868Z,101226.73
2018-01-25T21:36:15.348Z,101226.43
2018-01-25T21:38:43.825Z,101217.69
2018-01-25T21:41:12.288Z,101226.56
2018-01-25T21:43:40.697Z,101232.23
2018-01-25T21:46:09.148Z,101223.28
2018-01-25T21:48:37.628Z,101233.33
2018-01-25T21:51:06.090Z,101234.28
2018-01-25T21:53:34.541Z,101229.58
2018-01-25T21:56:02.973Z,101219.77
2018-01-25T21:58:31.426Z,101232.10
2018-01-25T22:00:59.928Z,101235.84
2018-01-25T22:03:28.392Z,101237.55
2018-01-25T22:05:56.808Z,101234.59
2018-01-25T22:08:25.265Z,101238.17
2018-01-25T22:10:53.680Z,101238.45
2018-01-25T22:13:22.133Z,101225.64
2018-01-25T22:15:50.608Z,101235.38
2018-01-25T22:18:19.097Z,101235.09
2018-01-25T22:20:47.591Z,101238.52
2018-01-25T22:23:16.105Z,101234.70
2018-01-25T22:25:44.516Z,101236.97
2018-01-25T22:28:12.946Z,101228.56
2018-01-25T22:30:41.409Z,101233.83
2018-01-25T22:33:09.890Z,101230.08
2018-01-25T22:35:38.313Z,101230.32
2018-01-25T22:38:06.767Z,101221.36
2018-01-25T22:40:35.285Z,101226.09
2018-01-25T22:43:03.819Z,101217.67
2018-01-25T22:45:32.246Z,101215.33
2018-01-25T22:48:00.708Z,101227.46
2018-01-25T22:50:29.155Z,101225.95
2018-01-25T22:52:57.601Z,101223.25
2018-01-25T22:55:26.080Z,101225.23
2018-01-25T22:57:54.492Z,101228.30
2018-01-25T23:00:34.652Z,101223.77
2018-01-25T23:03:03.092Z,101221.84
2018-01-25T23:05:31.524Z,101216.78
2018-01-25T23:07:59.988Z,101222.02
2018-01-25T23:10:28.453Z,101216.42
2018-01-25T23:12:56.948Z,101214.91
2018-01-25T23:15:25.412Z,101219.27
2018-01-25T23:17:53.921Z,101218.17
2018-01-25T23:20:22.369Z,101219.08
2018-01-25T23:22:50.817Z,101196.88
2018-01-25T23:25:19.292Z,101214.81
2018-01-25T23:27:47.749Z,101217.62
2018-01-25T23:30:16.316Z,101215.20
2018-01-25T23:32:44.736Z,101211.87
2018-01-25T23:35:13.245Z,101208.44
2018-01-25T23:37:41.700Z,101212.13
2018-01-25T23:40:10.217Z,101210.78
2018-01-25T23:42:38.653Z,101204.86
2018-01-25T23:45:07.157Z,101194.03
2018-01-25T23:47:35.608Z,101214.72
2018-01-25T23:50:04.142Z,101203.11
2018-01-25T23:52:32.565Z,101206.73
2018-01-25T23:55:01.050Z,101210.19
2018-01-25T23:57:29.534Z,101206.00
2018-01-25T23:59:57.989Z,101210.22
